Time;durP1;ratioP1;P1;durP2;ratioP2;P2;SDS_P1;SDS_P2;PMS_P1;PMS_P2;Temp;Humidity;BMP_temperature;BMP_pressure;BME280_temperature;BME280_humidity;BME280_pressure;Samples;Min_cycle;Max_cycle;Signal;HPM_P1;HPM_P2
2022/05/14 00:00:14;;;;;;;4.30;1.73;;;12.80;93.00;;;;;;5041981;28;20475;-78
2022/05/14 00:03:00;;;;;;;6.17;1.90;;;12.60;93.70;;;;;;5049703;28;20517;-78
2022/05/14 00:05:46;;;;;;;6.20;1.93;;;12.50;94.60;;;;;;5046499;28;20492;-78
2022/05/14 00:08:32;;;;;;;3.23;1.40;;;12.60;94.90;;;;;;5046875;28;20489;-78
2022/05/14 00:14:23;;;;;;;2.50;1.33;;;12.70;94.20;;;;;;5045883;28;20963;-77
2022/05/14 00:17:09;;;;;;;5.80;1.90;;;12.80;94.30;;;;;;5049889;28;20423;-78
2022/05/14 00:19:54;;;;;;;3.37;1.90;;;12.80;94.00;;;;;;5046794;28;20536;-78
2022/05/14 00:22:40;;;;;;;3.47;1.40;;;12.90;93.90;;;;;;5056085;28;20489;-77
2022/05/14 00:25:26;;;;;;;3.93;1.73;;;12.80;94.10;;;;;;5047908;28;20418;-77
2022/05/14 00:28:14;;;;;;;3.87;1.90;;;12.60;94.00;;;;;;5041897;28;20486;-77
2022/05/14 00:30:59;;;;;;;2.67;1.70;;;12.60;94.10;;;;;;5041181;28;20476;-77
2022/05/14 00:33:46;;;;;;;2.73;1.63;;;12.60;94.20;;;;;;5045508;28;20594;-77
2022/05/14 00:36:32;;;;;;;3.03;1.70;;;12.60;94.30;;;;;;5046506;28;20504;-78
2022/05/14 00:39:17;;;;;;;5.20;1.67;;;12.60;94.10;;;;;;5052395;28;20444;-78
2022/05/14 00:42:03;;;;;;;2.27;1.17;;;12.50;93.70;;;;;;5048626;28;20483;-78
2022/05/14 00:44:50;;;;;;;3.00;1.40;;;12.50;94.10;;;;;;5055491;28;20522;-78
2022/05/14 00:47:38;;;;;;;3.20;1.50;;;12.40;94.30;;;;;;5050954;28;20526;-77
2022/05/14 00:50:27;;;;;;;3.23;1.60;;;12.30;94.50;;;;;;5049823;28;20828;-78
2022/05/14 00:53:15;;;;;;;8.13;1.87;;;12.20;94.60;;;;;;5048788;28;20575;-78
2022/05/14 00:56:06;;;;;;;3.07;1.50;;;12.30;94.60;;;;;;5054242;28;20460;-77
2022/05/14 00:58:56;;;;;;;3.40;1.57;;;12.40;94.10;;;;;;5048888;28;20447;-78
2022/05/14 01:02:38;;;;;;;4.10;1.83;;;12.20;94.20;;;;;;5051217;28;20458;-82
2022/05/14 01:06:26;;;;;;;3.13;1.50;;;12.20;94.40;;;;;;5066959;28;20455;-85
2022/05/14 01:09:56;;;;;;;5.00;1.53;;;12.20;94.40;;;;;;5077110;28;20414;-87
2022/05/14 01:46:06;;;;;;;3.60;1.80;;;11.60;96.60;;;;;;4999849;22;20471;-71
2022/05/14 01:48:52;;;;;;;2.67;1.70;;;11.70;96.50;;;;;;4986856;28;20420;-70
2022/05/14 01:51:38;;;;;;;2.57;1.93;;;11.90;95.90;;;;;;4980695;28;21013;-70
2022/05/14 01:54:24;;;;;;;3.10;1.63;;;12.00;95.10;;;;;;4997710;28;20409;-70
2022/05/14 01:57:10;;;;;;;3.93;1.40;;;11.90;95.40;;;;;;4982478;28;20573;-69
2022/05/14 01:59:55;;;;;;;3.83;2.10;;;11.80;95.80;;;;;;5015702;23;20467;-77
2022/05/14 02:02:43;;;;;;;6.07;2.00;;;11.80;95.70;;;;;;5002488;28;20808;-76
2022/05/14 02:05:28;;;;;;;5.23;2.37;;;11.90;95.50;;;;;;5010056;28;20545;-76
2022/05/14 02:08:14;;;;;;;3.37;1.60;;;11.90;95.00;;;;;;5014298;28;20482;-76
2022/05/14 02:11:00;;;;;;;2.87;1.63;;;11.90;95.00;;;;;;5017775;28;20427;-76
2022/05/14 02:13:47;;;;;;;8.37;1.63;;;11.90;94.90;;;;;;5016663;28;20403;-77
2022/05/14 02:16:32;;;;;;;2.50;1.60;;;11.70;95.30;;;;;;5013613;28;20449;-76
2022/05/14 02:19:19;;;;;;;2.97;1.60;;;11.50;95.60;;;;;;5008445;28;20476;-76
2022/05/14 02:22:06;;;;;;;6.03;2.10;;;11.50;95.80;;;;;;5008564;28;20980;-76
2022/05/14 02:24:54;;;;;;;5.93;1.87;;;11.50;95.80;;;;;;5007329;28;20423;-77
2022/05/14 02:27:39;;;;;;;4.00;2.20;;;11.40;96.20;;;;;;5010135;28;20512;-76
2022/05/14 02:30:25;;;;;;;3.50;1.50;;;11.30;96.20;;;;;;5011478;28;20437;-76
2022/05/14 02:33:12;;;;;;;6.03;1.77;;;11.20;96.50;;;;;;5007554;28;20416;-76
2022/05/14 02:36:00;;;;;;;4.00;2.10;;;11.10;97.20;;;;;;5020551;28;20561;-76
2022/05/14 02:38:45;;;;;;;3.60;1.97;;;11.00;98.20;;;;;;4998172;28;20447;-76
2022/05/14 02:41:31;;;;;;;8.43;3.67;;;10.90;98.60;;;;;;5008092;28;20408;-77
2022/05/14 02:44:16;;;;;;;5.00;1.97;;;10.90;99.00;;;;;;5012219;28;20449;-76
2022/05/14 02:47:02;;;;;;;4.30;1.73;;;10.90;98.80;;;;;;5007579;28;20775;-76
2022/05/14 02:49:48;;;;;;;6.40;1.83;;;11.10;98.50;;;;;;5008157;28;20439;-76
2022/05/14 02:52:35;;;;;;;5.83;1.90;;;11.20;98.00;;;;;;5022550;28;20396;-77
2022/05/14 02:55:21;;;;;;;3.20;1.80;;;11.30;97.60;;;;;;5009025;28;20804;-76
2022/05/14 02:58:07;;;;;;;4.23;1.70;;;11.40;97.10;;;;;;5003305;28;20540;-76
2022/05/14 03:00:53;;;;;;;4.17;1.80;;;11.50;97.20;;;;;;5005765;28;20838;-76
2022/05/14 03:03:39;;;;;;;8.53;2.00;;;11.40;97.00;;;;;;5016541;28;20537;-76
2022/05/14 03:06:24;;;;;;;3.40;1.80;;;11.20;97.20;;;;;;5012623;28;20819;-76
2022/05/14 03:09:12;;;;;;;7.50;1.80;;;11.00;97.50;;;;;;5010619;28;20443;-77
2022/05/14 03:11:58;;;;;;;5.27;1.70;;;11.10;97.70;;;;;;5015739;28;20793;-76
2022/05/14 03:14:44;;;;;;;4.60;1.90;;;11.20;97.50;;;;;;5013111;28;20427;-77
2022/05/14 03:17:29;;;;;;;4.70;2.10;;;11.20;97.20;;;;;;5009618;28;20486;-76
2022/05/14 03:20:15;;;;;;;4.30;1.80;;;11.10;97.40;;;;;;5017972;28;20473;-76
2022/05/14 03:23:00;;;;;;;5.30;1.60;;;11.10;96.90;;;;;;5012978;28;20462;-77
2022/05/14 03:25:47;;;;;;;8.13;2.20;;;11.00;97.30;;;;;;5011800;28;20440;-76
2022/05/14 03:28:33;;;;;;;2.93;1.87;;;10.80;97.70;;;;;;5006868;28;20946;-77
2022/05/14 03:31:19;;;;;;;2.90;1.60;;;10.80;97.90;;;;;;5014556;28;20840;-76
2022/05/14 03:34:05;;;;;;;2.70;1.50;;;10.80;98.00;;;;;;5018585;28;21021;-76
2022/05/14 03:36:51;;;;;;;4.40;1.87;;;10.90;97.60;;;;;;5015828;28;20522;-76
2022/05/14 03:39:36;;;;;;;9.37;1.97;;;11.00;97.60;;;;;;5015541;28;20495;-76
2022/05/14 03:42:24;;;;;;;3.00;1.50;;;11.00;97.20;;;;;;5011515;28;20985;-76
2022/05/14 03:45:10;;;;;;;3.00;1.60;;;10.70;97.60;;;;;;5021387;28;20399;-76
2022/05/14 03:47:56;;;;;;;5.53;1.77;;;10.70;97.90;;;;;;5003549;28;20804;-76
2022/05/14 03:50:41;;;;;;;6.50;1.93;;;10.70;98.30;;;;;;5008881;28;20419;-77
2022/05/14 03:53:27;;;;;;;4.30;1.93;;;10.60;98.30;;;;;;5011102;28;20463;-76
2022/05/14 03:56:13;;;;;;;3.43;1.93;;;10.60;98.10;;;;;;5006707;28;20964;-76
2022/05/14 03:59:00;;;;;;;5.43;2.20;;;10.70;98.20;;;;;;5011532;28;20987;-76
2022/05/14 04:01:46;;;;;;;4.90;2.10;;;10.60;98.50;;;;;;5014269;28;20778;-76
2022/05/14 04:04:32;;;;;;;3.00;1.67;;;10.60;98.30;;;;;;5011774;28;20405;-76
2022/05/14 04:07:18;;;;;;;2.90;2.10;;;10.70;98.30;;;;;;5007127;28;20432;-76
2022/05/14 04:10:04;;;;;;;4.10;1.63;;;10.60;98.40;;;;;;5015436;28;20438;-77
2022/05/14 04:12:50;;;;;;;3.30;1.80;;;10.60;98.50;;;;;;5016728;28;20574;-76
2022/05/14 04:15:37;;;;;;;6.53;1.77;;;10.60;98.80;;;;;;5013721;28;20435;-76
2022/05/14 04:18:25;;;;;;;2.93;1.80;;;10.60;98.80;;;;;;5008485;28;20515;-76
2022/05/14 04:21:11;;;;;;;5.43;2.00;;;10.80;98.80;;;;;;5012062;28;20453;-76
2022/05/14 04:23:57;;;;;;;3.27;1.73;;;11.00;98.30;;;;;;5020418;28;21064;-77
2022/05/14 04:26:43;;;;;;;4.83;1.97;;;11.20;97.90;;;;;;5008014;28;20508;-76
2022/05/14 04:29:29;;;;;;;3.50;2.13;;;11.30;97.80;;;;;;5012379;28;20423;-76
2022/05/14 04:32:15;;;;;;;2.90;1.80;;;11.30;97.50;;;;;;5019991;28;20453;-77
2022/05/14 04:35:01;;;;;;;7.67;2.63;;;11.30;97.40;;;;;;5015342;28;20455;-76
2022/05/14 04:37:46;;;;;;;3.60;1.77;;;11.20;97.50;;;;;;5005116;28;20404;-76
2022/05/14 04:40:32;;;;;;;12.27;3.27;;;11.30;97.60;;;;;;5013741;28;20454;-77
2022/05/14 04:43:18;;;;;;;5.20;2.00;;;11.30;97.60;;;;;;5014261;28;20549;-76
2022/05/14 04:46:07;;;;;;;3.53;1.87;;;11.50;97.60;;;;;;5006597;28;20464;-76
2022/05/14 04:48:55;;;;;;;3.27;2.20;;;11.50;97.10;;;;;;5010001;28;20457;-76
2022/05/14 04:51:40;;;;;;;3.60;1.77;;;11.50;97.60;;;;;;5015183;28;20471;-76
2022/05/14 04:54:26;;;;;;;3.80;2.20;;;11.50;97.90;;;;;;5012178;28;20951;-76
2022/05/14 04:57:12;;;;;;;5.73;1.90;;;11.60;98.20;;;;;;5006533;28;20427;-77
2022/05/14 04:59:57;;;;;;;6.60;2.60;;;11.60;98.40;;;;;;5013756;28;20468;-76
2022/05/14 05:05:51;;;;;;;3.80;1.73;;;12.00;98.50;;;;;;5001554;28;20500;-77
2022/05/14 05:08:38;;;;;;;2.93;1.87;;;12.10;98.70;;;;;;5019591;28;20440;-77
2022/05/14 05:11:24;;;;;;;3.40;1.80;;;12.20;98.70;;;;;;5011261;28;20916;-77
2022/05/14 05:14:10;;;;;;;16.50;3.87;;;12.20;99.00;;;;;;5016534;28;20916;-76
2022/05/14 05:16:56;;;;;;;3.17;2.00;;;12.20;99.00;;;;;;5008631;28;20467;-77
2022/05/14 05:19:42;;;;;;;4.10;1.87;;;12.40;99.10;;;;;;5011190;28;20420;-77
2022/05/14 05:22:29;;;;;;;2.67;1.67;;;12.50;99.10;;;;;;5012040;28;20465;-76
2022/05/14 05:25:15;;;;;;;3.40;1.90;;;12.60;99.60;;;;;;5003063;28;20497;-77
2022/05/14 05:28:01;;;;;;;4.10;2.00;;;12.70;99.50;;;;;;5012489;28;20411;-76
2022/05/14 05:30:47;;;;;;;6.53;2.10;;;12.80;99.30;;;;;;5012820;28;20423;-76
2022/05/14 05:33:32;;;;;;;9.10;2.50;;;12.90;99.60;;;;;;5007892;28;20415;-77
2022/05/14 05:36:18;;;;;;;2.90;2.00;;;12.90;99.70;;;;;;5001392;28;20428;-74
2022/05/14 05:39:05;;;;;;;9.67;2.43;;;13.00;99.60;;;;;;5010016;28;20614;-77
2022/05/14 05:41:51;;;;;;;5.60;2.43;;;13.10;99.00;;;;;;5014339;28;20514;-77
2022/05/14 05:44:36;;;;;;;3.50;1.90;;;13.20;98.30;;;;;;5007685;28;20953;-76
2022/05/14 05:47:22;;;;;;;3.43;2.10;;;13.40;98.40;;;;;;5013847;28;20433;-74
2022/05/14 05:50:09;;;;;;;3.57;1.87;;;13.40;99.20;;;;;;5006336;28;20476;-75
2022/05/14 05:52:54;;;;;;;4.63;2.40;;;13.50;99.20;;;;;;5017752;28;20408;-77
2022/05/14 05:58:45;;;;;;;15.80;2.50;;;13.70;98.50;;;;;;5011307;28;20984;-77
2022/05/14 06:01:31;;;;;;;3.70;1.80;;;13.80;98.40;;;;;;5016445;28;20976;-76
2022/05/14 06:04:16;;;;;;;5.53;2.37;;;14.00;97.20;;;;;;5007454;28;20477;-76
2022/05/14 06:07:03;;;;;;;5.43;2.77;;;14.10;97.80;;;;;;5012921;28;20532;-75
2022/05/14 06:09:48;;;;;;;6.40;2.00;;;14.20;97.00;;;;;;5003369;28;20464;-75
2022/05/14 06:12:38;;;;;;;7.20;2.20;;;14.30;97.40;;;;;;5008830;28;20850;-75
2022/05/14 06:15:23;;;;;;;3.80;2.20;;;14.40;97.20;;;;;;5005900;28;20593;-75
2022/05/14 06:18:10;;;;;;;5.67;2.47;;;14.40;96.90;;;;;;5016470;28;20538;-76
2022/05/14 06:20:55;;;;;;;3.47;2.40;;;14.50;96.30;;;;;;5015529;28;20498;-77
2022/05/14 06:23:41;;;;;;;5.23;2.00;;;14.40;96.80;;;;;;5006211;28;20469;-74
2022/05/14 06:26:27;;;;;;;3.57;1.90;;;14.50;96.90;;;;;;5005347;28;20486;-74
2022/05/14 06:29:15;;;;;;;4.20;2.33;;;14.60;96.20;;;;;;5014260;28;20499;-75
2022/05/14 06:32:01;;;;;;;4.00;1.87;;;14.80;97.20;;;;;;5007755;28;20472;-75
2022/05/14 06:34:47;;;;;;;4.20;1.83;;;14.90;95.20;;;;;;5000590;28;20450;-75
2022/05/14 06:37:33;;;;;;;3.30;1.50;;;14.80;91.30;;;;;;5015253;28;20437;-75
2022/05/14 06:40:19;;;;;;;3.40;1.60;;;14.90;92.30;;;;;;5018614;28;20404;-75
2022/05/14 06:43:05;;;;;;;6.97;2.00;;;15.20;93.90;;;;;;5012608;28;21005;-75
2022/05/14 06:45:53;;;;;;;5.80;1.70;;;15.30;94.10;;;;;;5011053;28;20449;-75
2022/05/14 06:48:39;;;;;;;3.63;2.03;;;15.50;93.00;;;;;;5018012;28;20527;-75
2022/05/14 06:51:28;;;;;;;5.10;2.30;;;15.70;92.80;;;;;;5007596;28;20419;-75
2022/05/14 06:54:14;;;;;;;5.40;1.77;;;15.70;91.00;;;;;;5006307;28;20498;-75
2022/05/14 06:57:02;;;;;;;6.80;2.13;;;15.80;90.00;;;;;;5009540;28;20424;-75
2022/05/14 06:59:48;;;;;;;3.43;1.90;;;16.00;89.60;;;;;;5020407;28;20960;-75
2022/05/14 07:02:36;;;;;;;6.10;1.87;;;16.20;87.70;;;;;;5016347;28;20433;-76
2022/05/14 07:08:25;;;;;;;2.70;1.87;;;16.50;88.20;;;;;;5014612;28;20956;-76
2022/05/14 07:11:12;;;;;;;6.17;1.97;;;16.70;86.40;;;;;;5018357;28;20855;-76
2022/05/14 07:13:58;;;;;;;5.40;2.27;;;16.90;85.10;;;;;;5004952;28;20515;-76
2022/05/14 07:16:45;;;;;;;4.50;1.90;;;16.90;81.40;;;;;;5016006;28;20507;-76
2022/05/14 07:19:32;;;;;;;7.00;2.27;;;17.00;80.60;;;;;;5015407;28;20531;-76
2022/05/14 07:22:17;;;;;;;6.50;2.07;;;17.10;80.20;;;;;;5015151;28;20452;-76
2022/05/14 07:25:03;;;;;;;2.73;1.53;;;17.30;80.50;;;;;;5010177;28;20604;-76
2022/05/14 07:27:49;;;;;;;7.33;2.23;;;17.40;81.80;;;;;;5009288;28;20399;-76
2022/05/14 07:30:34;;;;;;;4.60;1.90;;;17.50;81.80;;;;;;5013094;28;20985;-76
2022/05/14 07:33:20;;;;;;;8.23;2.07;;;17.60;80.00;;;;;;5009154;28;20450;-76
2022/05/14 07:36:12;;;;;;;9.27;2.20;;;17.70;81.40;;;;;;5015737;28;20782;-76
2022/05/14 07:39:02;;;;;;;6.53;2.07;;;17.90;81.80;;;;;;5020236;28;20449;-76
2022/05/14 07:41:53;;;;;;;7.77;1.90;;;18.00;79.30;;;;;;5012877;28;20656;-76
2022/05/14 07:44:43;;;;;;;5.37;2.20;;;18.10;77.20;;;;;;5011659;28;20492;-76
2022/05/14 07:47:31;;;;;;;6.73;2.40;;;18.30;76.70;;;;;;5011272;28;20453;-76
2022/05/14 07:50:18;;;;;;;3.70;2.40;;;18.40;76.30;;;;;;5019364;28;20399;-76
2022/05/14 07:53:05;;;;;;;4.60;1.97;;;18.50;75.20;;;;;;5008320;28;20454;-76
2022/05/14 07:55:51;;;;;;;7.90;2.50;;;18.60;76.20;;;;;;5008778;28;20445;-76
2022/05/14 07:58:37;;;;;;;7.50;2.53;;;18.70;75.70;;;;;;5033632;22;20651;-79
2022/05/14 08:01:23;;;;;;;5.03;2.40;;;18.80;71.40;;;;;;5041596;28;20428;-79
2022/05/14 08:07:40;;;;;;;10.47;2.20;;;19.00;66.20;;;;;;5031570;28;20427;-80
2022/05/14 08:10:36;;;;;;;13.00;2.50;;;19.10;67.00;;;;;;5025546;28;20451;-80
2022/05/14 08:16:42;;;;;;;9.80;2.30;;;19.20;66.40;;;;;;5013124;28;20453;-77
2022/05/14 08:19:28;;;;;;;10.57;2.23;;;19.30;65.70;;;;;;5016860;28;20445;-77
2022/05/14 08:25:17;;;;;;;6.13;2.27;;;19.40;63.60;;;;;;5014660;28;20986;-76
2022/05/14 08:28:05;;;;;;;6.40;2.50;;;19.60;66.50;;;;;;5015236;28;20505;-76
2022/05/14 08:30:51;;;;;;;4.73;1.90;;;19.70;63.00;;;;;;5015648;28;20453;-76
2022/05/14 08:33:36;;;;;;;6.67;2.03;;;19.90;61.00;;;;;;5004946;28;20502;-77
2022/05/14 08:36:22;;;;;;;8.80;2.30;;;19.90;59.90;;;;;;5019833;28;20441;-76
2022/05/14 08:39:08;;;;;;;3.90;1.50;;;19.90;59.70;;;;;;5019281;28;20476;-77
2022/05/14 08:41:55;;;;;;;11.93;2.97;;;20.00;60.70;;;;;;5007408;28;20512;-77
2022/05/14 08:44:46;;;;;;;7.43;2.20;;;20.00;59.00;;;;;;5010907;28;20509;-77
2022/05/14 08:47:36;;;;;;;6.80;1.90;;;20.00;57.30;;;;;;5017448;28;20500;-77
2022/05/14 08:50:24;;;;;;;9.93;2.00;;;19.90;57.20;;;;;;5031701;28;20452;-77
2022/05/14 08:53:13;;;;;;;9.33;2.50;;;20.00;55.30;;;;;;5009851;28;20809;-77
2022/05/14 08:56:14;;;;;;;5.20;1.90;;;20.10;56.80;;;;;;5012387;28;20433;-77
2022/05/14 08:59:15;;;;;;;6.87;2.30;;;20.10;60.30;;;;;;5021981;28;20874;-77
2022/05/14 09:02:06;;;;;;;8.17;1.90;;;20.30;57.30;;;;;;5009891;28;20535;-77
2022/05/14 09:04:58;;;;;;;5.37;2.40;;;20.30;57.20;;;;;;5023855;28;21002;-78
2022/05/14 09:07:43;;;;;;;5.50;2.00;;;20.50;55.50;;;;;;5016670;28;20530;-77
2022/05/14 09:10:32;;;;;;;3.50;1.70;;;20.50;57.60;;;;;;5020281;28;20477;-77
2022/05/14 09:13:21;;;;;;;4.40;2.00;;;20.60;61.30;;;;;;5013656;28;20448;-77
2022/05/14 09:16:07;;;;;;;16.23;2.10;;;20.80;58.30;;;;;;5019111;28;20536;-77
2022/05/14 09:18:54;;;;;;;10.73;2.47;;;20.90;56.50;;;;;;5017163;28;20465;-78
2022/05/14 09:21:50;;;;;;;7.67;2.57;;;20.80;51.80;;;;;;5004365;28;20589;-77
2022/05/14 09:24:48;;;;;;;6.50;2.57;;;20.60;51.00;;;;;;5014537;28;21157;-80
2022/05/14 09:27:44;;;;;;;5.27;2.17;;;20.60;53.20;;;;;;5011616;28;20457;-81
2022/05/14 09:30:34;;;;;;;9.60;2.40;;;20.50;48.70;;;;;;5011109;28;20459;-79
2022/05/14 09:37:36;;;;;;;9.00;1.80;;;20.60;49.70;;;;;;5017522;28;20452;-80
2022/05/14 09:40:26;;;;;;;10.27;2.17;;;20.90;51.80;;;;;;5020271;28;20477;-81
2022/05/14 09:43:24;;;;;;;6.33;2.67;;;21.10;52.40;;;;;;5003024;28;20467;-79
2022/05/14 09:46:16;;;;;;;6.27;2.47;;;21.00;52.00;;;;;;5014634;28;20436;-81
2022/05/14 09:49:09;;;;;;;11.63;2.53;;;21.00;51.30;;;;;;5037096;28;20472;-81
2022/05/14 09:52:05;;;;;;;7.30;2.60;;;21.20;53.20;;;;;;5032331;28;20451;-81
2022/05/14 09:55:19;;;;;;;8.23;2.87;;;21.10;51.00;;;;;;5040147;28;20536;-80
2022/05/14 09:58:17;;;;;;;5.10;2.43;;;21.20;49.90;;;;;;5038971;28;20501;-81
2022/05/14 10:01:36;;;;;;;4.43;2.20;;;21.10;50.70;;;;;;5028698;28;20549;-81
2022/05/14 10:12:09;;;;;;;5.20;2.43;;;21.40;48.00;;;;;;5017665;28;20445;-82
2022/05/14 10:15:10;;;;;;;7.93;2.50;;;21.40;48.40;;;;;;5025902;28;20463;-82
2022/05/14 10:19:10;;;;;;;8.97;2.30;;;21.60;47.20;;;;;;5025350;28;20437;-81
2022/05/14 10:22:14;;;;;;;8.23;1.97;;;21.40;42.80;;;;;;5021842;28;20416;-81
2022/05/14 10:28:57;;;;;;;9.63;2.60;;;21.20;46.30;;;;;;5004864;28;20478;-81
2022/05/14 10:35:19;;;;;;;3.60;1.50;;;21.70;45.60;;;;;;5023499;28;20446;-81
2022/05/14 10:41:54;;;;;;;6.70;2.00;;;22.00;41.70;;;;;;5025298;28;20414;-81
2022/05/14 10:48:16;;;;;;;4.80;1.67;;;22.10;41.80;;;;;;4999231;28;20446;-81
2022/05/14 10:52:11;;;;;;;3.63;1.50;;;22.40;42.10;;;;;;5021569;28;20444;-81
2022/05/14 11:05:37;;;;;;;5.13;1.73;;;22.30;38.90;;;;;;5005161;28;20526;-75
2022/05/14 11:08:32;;;;;;;3.20;1.50;;;22.30;39.80;;;;;;5008242;28;20453;-77
2022/05/14 11:11:20;;;;;;;5.33;1.93;;;22.50;41.70;;;;;;5009017;28;20454;-77
2022/05/14 11:14:09;;;;;;;11.83;1.70;;;22.60;37.10;;;;;;5007001;28;20449;-77
2022/05/14 11:16:54;;;;;;;5.70;2.10;;;22.80;36.40;;;;;;5005499;28;20457;-77
2022/05/14 11:19:40;;;;;;;3.20;1.50;;;22.80;35.70;;;;;;5014140;28;21018;-76
2022/05/14 11:22:31;;;;;;;4.83;1.43;;;22.70;35.80;;;;;;5013843;28;20647;-77
2022/05/14 11:25:24;;;;;;;3.87;1.60;;;22.70;36.60;;;;;;5013416;28;20857;-77
2022/05/14 11:28:14;;;;;;;11.17;2.70;;;23.00;38.00;;;;;;5017132;28;20453;-76
2022/05/14 11:31:15;;;;;;;3.70;1.50;;;23.20;37.40;;;;;;5005004;28;20441;-77
2022/05/14 11:34:16;;;;;;;2.60;1.20;;;23.40;36.20;;;;;;5012496;28;20449;-76
2022/05/14 11:37:06;;;;;;;6.63;1.87;;;23.50;35.40;;;;;;5015645;28;20467;-77
2022/05/14 11:40:05;;;;;;;6.13;1.50;;;23.70;35.60;;;;;;5012906;28;20469;-76
2022/05/14 11:42:53;;;;;;;4.10;1.70;;;23.80;32.10;;;;;;5017374;28;20465;-77
2022/05/14 11:45:50;;;;;;;4.40;1.60;;;23.70;33.30;;;;;;5010763;28;20472;-77
2022/05/14 11:48:43;;;;;;;4.43;2.00;;;23.90;34.20;;;;;;5011358;28;20985;-77
2022/05/14 11:51:36;;;;;;;8.30;2.07;;;24.00;34.00;;;;;;5004166;28;20808;-76
2022/05/14 11:54:27;;;;;;;10.40;1.80;;;24.00;33.40;;;;;;5013682;28;20528;-75
2022/05/14 11:57:19;;;;;;;4.63;1.27;;;24.10;32.60;;;;;;5015046;28;20528;-77
2022/05/14 12:00:08;;;;;;;3.60;1.50;;;24.00;31.40;;;;;;5006548;28;21015;-77
2022/05/14 12:02:58;;;;;;;4.17;1.63;;;24.20;34.60;;;;;;5011483;28;20445;-77
2022/05/14 12:05:49;;;;;;;4.97;1.30;;;24.20;32.50;;;;;;5012503;28;21014;-76
2022/05/14 12:09:19;;;;;;;10.87;1.80;;;24.30;33.10;;;;;;5018572;28;20481;-77
2022/05/14 12:12:09;;;;;;;3.90;2.07;;;24.50;32.70;;;;;;4995373;28;20931;-77
2022/05/14 12:15:05;;;;;;;11.30;2.23;;;24.50;32.10;;;;;;5016094;28;20457;-77
2022/05/14 12:17:52;;;;;;;3.30;1.77;;;24.60;32.60;;;;;;5019651;28;20422;-77
2022/05/14 12:20:39;;;;;;;4.90;1.80;;;24.50;30.00;;;;;;5014057;28;20548;-77
2022/05/14 12:23:34;;;;;;;6.23;1.50;;;24.60;32.90;;;;;;5015192;28;20509;-77
2022/05/14 12:26:23;;;;;;;6.13;1.80;;;24.60;32.50;;;;;;5015243;28;20472;-76
2022/05/14 12:29:15;;;;;;;6.20;2.00;;;24.60;31.00;;;;;;5016790;28;20461;-76
2022/05/14 12:35:18;;;;;;;4.70;1.93;;;24.90;31.30;;;;;;5011437;28;20488;-76
2022/05/14 12:38:06;;;;;;;4.43;1.57;;;25.00;31.70;;;;;;5009915;28;20955;-76
2022/05/14 12:40:52;;;;;;;4.23;1.83;;;25.10;30.70;;;;;;5016049;28;20528;-77
2022/05/14 12:43:42;;;;;;;3.80;1.93;;;25.10;29.80;;;;;;5013715;28;20473;-77
2022/05/14 12:46:28;;;;;;;3.53;1.40;;;25.30;30.10;;;;;;5015104;28;20580;-76
2022/05/14 12:49:22;;;;;;;3.60;1.90;;;25.20;30.70;;;;;;5011818;28;20493;-77
2022/05/14 12:52:13;;;;;;;5.17;2.07;;;25.20;30.80;;;;;;5011928;28;20544;-71
2022/05/14 12:55:02;;;;;;;8.93;2.00;;;25.50;30.90;;;;;;5006421;28;20450;-71
2022/05/14 12:57:48;;;;;;;4.33;1.57;;;25.70;31.10;;;;;;5002334;28;20972;-71
2022/05/14 13:00:37;;;;;;;3.60;1.47;;;25.80;27.90;;;;;;5017718;28;20457;-71
2022/05/14 13:03:29;;;;;;;4.47;2.00;;;25.90;28.30;;;;;;5010791;28;20446;-71
2022/05/14 13:06:20;;;;;;;8.80;2.10;;;26.10;28.70;;;;;;5013322;28;20529;-71
2022/05/14 13:09:10;;;;;;;5.33;1.50;;;26.20;28.50;;;;;;5015456;28;20453;-71
2022/05/14 13:11:57;;;;;;;4.30;1.50;;;26.30;28.10;;;;;;5012773;28;20430;-71
2022/05/14 13:14:51;;;;;;;4.87;1.60;;;26.60;27.70;;;;;;4999536;28;20449;-72
2022/05/14 13:17:40;;;;;;;8.40;1.47;;;26.70;27.60;;;;;;5009543;28;20460;-71
2022/05/14 13:20:27;;;;;;;5.33;1.90;;;26.90;27.80;;;;;;5016521;28;20558;-71
2022/05/14 13:23:20;;;;;;;4.47;1.57;;;27.00;25.80;;;;;;5011964;28;20477;-71
2022/05/14 13:26:25;;;;;;;8.50;1.73;;;27.10;26.20;;;;;;5015069;28;20461;-71
2022/05/14 13:29:16;;;;;;;7.00;2.40;;;26.80;25.00;;;;;;5005895;28;20476;-71
2022/05/14 13:32:08;;;;;;;2.80;1.30;;;26.80;25.90;;;;;;5007007;28;20469;-73
2022/05/14 13:37:58;;;;;;;6.20;1.80;;;26.70;24.80;;;;;;5011096;28;20445;-73
2022/05/14 13:40:48;;;;;;;4.70;1.70;;;26.80;26.50;;;;;;5013128;28;20425;-73
2022/05/14 13:43:37;;;;;;;4.03;1.17;;;26.80;25.20;;;;;;5004394;28;20794;-73
2022/05/14 13:46:28;;;;;;;3.90;1.70;;;26.50;24.90;;;;;;5012120;28;21016;-73
2022/05/14 13:49:21;;;;;;;8.63;2.43;;;26.50;25.20;;;;;;5016256;28;20697;-73
2022/05/14 13:52:07;;;;;;;8.90;1.97;;;26.50;24.80;;;;;;5015061;28;20452;-73
2022/05/14 13:55:02;;;;;;;4.43;1.97;;;26.50;25.60;;;;;;5006802;28;20576;-72
2022/05/14 13:57:56;;;;;;;5.00;1.60;;;26.60;25.00;;;;;;5016554;28;20429;-73
2022/05/14 14:00:53;;;;;;;4.03;1.60;;;26.60;23.50;;;;;;5004244;28;20531;-73
2022/05/14 14:03:49;;;;;;;6.50;1.50;;;26.70;24.60;;;;;;4999897;28;20515;-73
2022/05/14 14:06:37;;;;;;;3.87;1.63;;;26.70;26.10;;;;;;5009417;28;20482;-73
2022/05/14 14:09:22;;;;;;;2.67;1.30;;;26.60;25.50;;;;;;5011016;28;21094;-73
2022/05/14 14:12:09;;;;;;;11.53;2.10;;;26.60;24.60;;;;;;5009928;28;20512;-73
2022/05/14 14:14:56;;;;;;;5.13;1.70;;;26.50;25.60;;;;;;5004883;28;20437;-73
2022/05/14 14:17:42;;;;;;;4.50;1.70;;;26.40;23.80;;;;;;5012161;28;20558;-73
2022/05/14 14:20:32;;;;;;;5.40;1.43;;;26.40;24.20;;;;;;5010641;28;20444;-73
2022/05/14 14:23:20;;;;;;;3.73;1.40;;;26.60;24.90;;;;;;5004813;28;20469;-73
2022/05/14 14:26:07;;;;;;;5.57;1.73;;;26.60;24.50;;;;;;5006668;28;21014;-73
2022/05/14 14:28:53;;;;;;;4.07;1.43;;;26.70;24.70;;;;;;5010399;28;20472;-73
2022/05/14 14:31:40;;;;;;;6.93;1.50;;;26.90;25.10;;;;;;5017013;28;21101;-73
2022/05/14 14:34:26;;;;;;;5.53;1.57;;;27.10;24.40;;;;;;5007103;28;20445;-73
2022/05/14 14:37:12;;;;;;;3.30;1.20;;;27.00;23.50;;;;;;5016144;28;20430;-73
2022/05/14 14:39:58;;;;;;;6.50;1.20;;;26.80;24.50;;;;;;5014010;28;20511;-73
2022/05/14 14:42:45;;;;;;;8.30;1.57;;;26.70;24.60;;;;;;5002958;28;20498;-73
2022/05/14 14:45:32;;;;;;;7.20;1.67;;;26.80;23.70;;;;;;5005214;28;20956;-72
2022/05/14 14:48:19;;;;;;;2.67;1.37;;;26.20;21.80;;;;;;5005757;28;20831;-72
2022/05/14 14:51:07;;;;;;;3.77;1.43;;;25.80;22.30;;;;;;5006800;28;20500;-73
2022/05/14 14:53:53;;;;;;;4.90;1.70;;;25.40;23.00;;;;;;5003685;28;20446;-73
2022/05/14 14:56:39;;;;;;;5.33;1.50;;;25.40;24.40;;;;;;5002815;28;20532;-73
2022/05/14 14:59:25;;;;;;;7.50;1.40;;;25.50;22.60;;;;;;5017953;28;21190;-73
2022/05/14 15:02:16;;;;;;;4.13;1.57;;;25.60;22.90;;;;;;5017321;28;20507;-72
2022/05/14 15:05:08;;;;;;;5.93;1.63;;;25.70;23.70;;;;;;5014008;28;20591;-73
2022/05/14 15:07:57;;;;;;;5.17;1.60;;;25.90;24.00;;;;;;5003143;28;20476;-73
2022/05/14 15:10:43;;;;;;;5.20;1.53;;;26.00;23.90;;;;;;5010862;28;20504;-73
2022/05/14 15:13:31;;;;;;;3.97;1.27;;;26.10;25.40;;;;;;5009952;28;20457;-72
2022/05/14 15:16:17;;;;;;;4.00;1.63;;;26.20;25.10;;;;;;5010933;28;20447;-73
2022/05/14 15:19:02;;;;;;;4.23;1.37;;;26.40;24.40;;;;;;5012098;28;20465;-73
2022/05/14 15:21:50;;;;;;;2.83;1.27;;;26.30;23.90;;;;;;5009645;28;20456;-73
2022/05/14 15:24:35;;;;;;;9.10;1.50;;;26.30;24.60;;;;;;5013256;28;20952;-73
2022/05/14 15:27:21;;;;;;;3.10;1.17;;;26.50;24.20;;;;;;5023984;28;20784;-73
2022/05/14 15:30:09;;;;;;;3.17;1.30;;;26.50;23.30;;;;;;5003952;28;21006;-73
2022/05/14 15:32:56;;;;;;;4.63;1.33;;;26.30;22.70;;;;;;5009723;28;20461;-72
2022/05/14 15:35:41;;;;;;;3.20;1.20;;;26.20;24.00;;;;;;5008651;28;20868;-73
2022/05/14 15:38:28;;;;;;;4.37;1.17;;;26.30;25.50;;;;;;5020908;28;20436;-73
2022/05/14 15:41:14;;;;;;;3.73;1.47;;;26.30;22.90;;;;;;5011187;28;20445;-72
2022/05/14 15:44:03;;;;;;;2.07;0.97;;;26.30;25.00;;;;;;5005875;28;20588;-71
2022/05/14 15:46:52;;;;;;;3.80;1.37;;;26.30;22.50;;;;;;5008800;28;20473;-71
2022/05/14 15:49:43;;;;;;;5.57;1.80;;;26.40;23.60;;;;;;5010840;28;20473;-71
2022/05/14 15:52:31;;;;;;;4.03;1.30;;;26.60;25.60;;;;;;4997213;28;20532;-72
2022/05/14 15:55:22;;;;;;;7.50;1.30;;;26.70;22.50;;;;;;5015370;28;20448;-72
2022/05/14 15:58:07;;;;;;;4.70;1.30;;;26.60;23.10;;;;;;5012748;28;20464;-72
2022/05/14 16:00:53;;;;;;;5.03;1.37;;;26.50;22.60;;;;;;5007813;28;20613;-72
2022/05/14 16:03:39;;;;;;;7.03;1.43;;;26.30;22.40;;;;;;5005694;28;20456;-72
2022/05/14 16:06:25;;;;;;;4.03;1.30;;;26.30;23.50;;;;;;5009324;28;20472;-71
2022/05/14 16:09:10;;;;;;;6.37;1.63;;;26.10;23.60;;;;;;5012134;28;20505;-71
2022/05/14 16:18:05;;;;;;;6.13;1.63;;;25.90;23.60;;;;;;5014554;28;20505;-72
2022/05/14 16:20:50;;;;;;;6.63;1.77;;;25.90;24.80;;;;;;5006259;28;20457;-72
2022/05/14 16:23:39;;;;;;;3.60;1.33;;;25.90;27.00;;;;;;5011419;28;20445;-72